createdAt,value
2022-09-24T00:01:47.993Z,93.06
2022-09-24T00:05:50.030Z,93.98
2022-09-24T00:09:52.043Z,93.92
2022-09-24T00:13:56.122Z,94.08
2022-09-24T00:17:58.166Z,94.31
2022-09-24T00:22:00.273Z,94.77
2022-09-24T00:26:20.790Z,95.02
2022-09-24T00:30:22.918Z,94.81
2022-09-24T00:34:25.012Z,94.30
2022-09-24T00:38:27.077Z,94.49
2022-09-24T00:42:32.273Z,94.48
2022-09-24T00:46:42.879Z,94.20
2022-09-24T00:50:45.126Z,94.11
2022-09-24T00:54:48.032Z,94.11
2022-09-24T00:58:52.846Z,94.50
2022-09-24T01:03:04.982Z,94.00
2022-09-24T01:07:07.042Z,93.63
2022-09-24T01:11:21.446Z,92.52
2022-09-24T01:15:33.925Z,93.23
2022-09-24T01:20:02.949Z,93.40
2022-09-24T01:24:25.059Z,94.09
2022-09-24T01:29:08.670Z,94.33
2022-09-24T01:33:16.299Z,94.68
2022-09-24T01:37:22.881Z,93.66
2022-09-24T01:41:25.012Z,94.20
2022-09-24T01:45:32.398Z,96.42
2022-09-24T01:49:34.413Z,97.95
2022-09-24T01:54:03.558Z,96.92
2022-09-24T01:58:10.493Z,97.95
2022-09-24T02:02:27.720Z,98.20
2022-09-24T02:06:40.169Z,98.25
2022-09-24T02:10:50.684Z,97.54
2022-09-24T02:14:57.290Z,97.34
2022-09-24T02:19:04.158Z,97.40
2022-09-24T02:23:07.845Z,97.73
2022-09-24T02:27:10.301Z,97.60
2022-09-24T02:31:21.964Z,97.57
2022-09-24T02:35:24.440Z,98.16
2022-09-24T02:39:26.695Z,97.46
2022-09-24T02:43:28.852Z,96.84
2022-09-24T02:47:31.031Z,97.93
2022-09-24T02:51:33.138Z,98.77
2022-09-24T02:55:35.151Z,98.50
2022-09-24T02:59:37.179Z,98.84
2022-09-24T03:03:39.206Z,99.42
2022-09-24T03:07:41.923Z,99.53
2022-09-24T03:11:43.972Z,98.55
2022-09-24T03:15:46.606Z,98.42
2022-09-24T03:19:50.031Z,97.49
2022-09-24T03:23:52.037Z,96.48
2022-09-24T03:27:54.089Z,97.04
2022-09-24T03:31:56.150Z,96.68
2022-09-24T03:36:04.369Z,97.54
2022-09-24T03:40:07.846Z,98.70
2022-09-24T03:44:10.067Z,97.86
2022-09-24T03:48:12.270Z,97.02
2022-09-24T03:52:14.299Z,96.40
2022-09-24T03:56:16.381Z,97.76
2022-09-24T04:00:18.497Z,100.00
2022-09-24T04:04:20.622Z,100.00
2022-09-24T04:08:23.673Z,100.00
2022-09-24T04:12:25.685Z,100.00
2022-09-24T04:16:27.929Z,100.00
2022-09-24T04:20:31.089Z,100.00
2022-09-24T04:24:33.098Z,100.00
2022-09-24T04:28:35.540Z,100.00
2022-09-24T04:32:37.533Z,100.00
2022-09-24T04:36:39.555Z,100.00
2022-09-24T04:40:41.617Z,100.00
2022-09-24T04:44:46.890Z,100.00
2022-09-24T04:48:49.887Z,99.98
2022-09-24T04:52:52.267Z,99.11
2022-09-24T04:56:54.357Z,98.31
2022-09-24T05:00:56.475Z,98.79
2022-09-24T05:04:58.702Z,98.43
2022-09-24T05:09:00.948Z,99.06
2022-09-24T05:13:03.231Z,99.97
2022-09-24T05:17:05.270Z,100.00
2022-09-24T05:21:07.399Z,100.00
2022-09-24T05:25:09.781Z,100.00
2022-09-24T05:29:12.104Z,100.00
2022-09-24T05:33:14.357Z,100.00
2022-09-24T05:37:16.511Z,100.00
2022-09-24T05:41:18.555Z,100.00
2022-09-24T05:45:20.631Z,100.00
2022-09-24T05:49:22.897Z,100.00
2022-09-24T05:53:24.894Z,100.00
2022-09-24T05:57:26.948Z,100.00
2022-09-24T06:01:31.875Z,100.00
2022-09-24T06:05:35.588Z,100.00
2022-09-24T06:09:37.603Z,100.00
2022-09-24T06:13:39.946Z,97.99
2022-09-24T06:17:42.033Z,96.49
2022-09-24T06:21:44.021Z,94.71
2022-09-24T06:25:50.607Z,94.21
2022-09-24T06:29:52.642Z,92.89
2022-09-24T06:33:57.907Z,91.55
2022-09-24T06:37:59.982Z,90.28
2022-09-24T06:42:02.591Z,89.49
2022-09-24T06:46:10.233Z,89.44
2022-09-24T06:50:12.384Z,88.18
2022-09-24T06:54:14.475Z,87.64
2022-09-24T06:58:21.323Z,87.86
2022-09-24T07:02:23.501Z,87.63
2022-09-24T07:06:25.658Z,87.62
2022-09-24T07:10:29.842Z,88.42
2022-09-24T07:14:31.884Z,88.10
2022-09-24T07:18:33.917Z,89.18
2022-09-24T07:22:40.407Z,88.56
2022-09-24T07:26:42.440Z,88.68
2022-09-24T07:30:44.446Z,88.75
2022-09-24T07:34:46.519Z,88.55
2022-09-24T07:38:48.834Z,87.29
2022-09-24T07:42:50.888Z,85.66
2022-09-24T07:46:53.186Z,83.43
2022-09-24T07:50:55.531Z,82.15
2022-09-24T07:54:57.583Z,81.28
2022-09-24T07:58:59.632Z,79.25
2022-09-24T08:03:03.259Z,77.85
2022-09-24T08:07:05.324Z,76.12
2022-09-24T08:11:10.579Z,73.94
2022-09-24T08:15:12.754Z,71.35
2022-09-24T08:19:16.903Z,70.45
2022-09-24T08:23:19.045Z,70.33
2022-09-24T08:27:21.055Z,69.43
2022-09-24T08:31:23.187Z,67.56
2022-09-24T08:35:25.457Z,65.66
2022-09-24T08:39:27.799Z,66.05
2022-09-24T08:43:44.687Z,67.12
2022-09-24T08:47:56.684Z,66.35
2022-09-24T08:52:26.449Z,66.45
2022-09-24T08:56:34.284Z,66.82
2022-09-24T09:01:01.033Z,66.31
2022-09-24T09:05:18.113Z,65.04
2022-09-24T09:09:24.574Z,64.97
2022-09-24T09:13:35.702Z,64.18
2022-09-24T09:17:49.895Z,64.82
2022-09-24T09:22:01.538Z,65.53
2022-09-24T09:26:06.757Z,66.21
2022-09-24T09:30:14.590Z,67.04
2022-09-24T09:34:46.855Z,66.37
2022-09-24T09:39:04.465Z,65.17
2022-09-24T09:43:11.450Z,65.08
2022-09-24T09:47:45.890Z,64.08
2022-09-24T09:51:49.704Z,64.31
2022-09-24T09:56:02.929Z,65.22
2022-09-24T10:00:05.611Z,65.73
2022-09-24T10:04:41.507Z,65.30
2022-09-24T10:08:43.518Z,65.44
2022-09-24T10:12:46.060Z,62.20
2022-09-24T10:16:54.151Z,60.06
2022-09-24T10:20:57.796Z,59.38
2022-09-24T10:25:01.051Z,57.83
2022-09-24T10:29:23.028Z,59.11
2022-09-24T10:33:26.730Z,58.91
2022-09-24T10:37:30.056Z,57.92
2022-09-24T10:41:32.211Z,56.76
2022-09-24T10:45:48.090Z,57.49
2022-09-24T10:50:07.679Z,58.30
2022-09-24T10:54:18.998Z,58.22
2022-09-24T10:58:48.406Z,57.81
2022-09-24T11:02:56.616Z,57.00
2022-09-24T11:07:20.212Z,57.48
2022-09-24T11:11:55.390Z,56.54
2022-09-24T11:16:14.291Z,55.50
2022-09-24T11:20:27.007Z,54.62
2022-09-24T11:24:46.539Z,53.89
2022-09-24T11:29:11.354Z,53.20
2022-09-24T11:33:35.133Z,52.94
2022-09-24T11:37:58.942Z,54.07
2022-09-24T11:42:24.250Z,54.23
2022-09-24T11:47:03.453Z,51.51
2022-09-24T11:51:17.769Z,51.76
2022-09-24T11:55:34.176Z,51.86
2022-09-24T11:59:45.185Z,51.08
2022-09-24T12:03:53.036Z,50.33
2022-09-24T12:08:07.519Z,50.49
2022-09-24T12:12:22.737Z,50.77
2022-09-24T12:16:28.532Z,51.06
2022-09-24T12:20:31.904Z,50.64
2022-09-24T12:24:42.706Z,50.45
2022-09-24T12:29:36.332Z,50.48
2022-09-24T12:34:03.395Z,49.78
2022-09-24T12:38:23.607Z,49.10
2022-09-24T12:42:34.790Z,48.76
2022-09-24T12:46:48.485Z,48.92
2022-09-24T12:50:57.939Z,48.95
2022-09-24T12:55:03.774Z,49.21
2022-09-24T12:59:05.837Z,49.84
2022-09-24T13:03:37.150Z,50.21
2022-09-24T13:07:44.134Z,49.08
2022-09-24T13:11:46.636Z,49.21
2022-09-24T13:16:03.389Z,49.34
2022-09-24T13:20:08.742Z,49.06
2022-09-24T13:24:11.733Z,49.61
2022-09-24T13:28:29.236Z,49.56
2022-09-24T13:33:09.892Z,49.72
2022-09-24T13:37:21.658Z,49.41
2022-09-24T13:41:38.985Z,49.77
2022-09-24T13:45:45.243Z,49.01
2022-09-24T13:49:51.226Z,49.79
2022-09-24T13:53:57.378Z,50.02
2022-09-24T13:57:59.559Z,50.46
2022-09-24T14:02:01.794Z,50.64
2022-09-24T14:06:12.108Z,50.47
2022-09-24T14:10:15.026Z,49.80
2022-09-24T14:14:21.012Z,49.95
2022-09-24T14:18:24.363Z,49.56
2022-09-24T14:22:36.547Z,49.12
2022-09-24T14:26:44.243Z,49.52
2022-09-24T14:30:53.993Z,49.86
2022-09-24T14:34:59.743Z,49.70
2022-09-24T14:39:05.294Z,50.12
2022-09-24T14:43:20.367Z,50.01
2022-09-24T14:47:28.276Z,50.11
2022-09-24T14:51:31.840Z,50.96
2022-09-24T14:55:40.151Z,51.36
2022-09-24T14:59:42.542Z,52.15
2022-09-24T15:03:54.366Z,52.79
2022-09-24T15:08:23.102Z,53.29
2022-09-24T15:12:34.008Z,53.06
2022-09-24T15:16:37.509Z,52.83
2022-09-24T15:20:39.501Z,52.66
2022-09-24T15:24:41.545Z,52.31
2022-09-24T15:28:43.553Z,52.60
2022-09-24T15:32:46.133Z,52.57
2022-09-24T15:36:49.418Z,52.06
2022-09-24T15:40:53.708Z,52.19
2022-09-24T15:44:57.702Z,52.22
2022-09-24T15:48:59.684Z,52.41
2022-09-24T15:53:02.350Z,52.18
2022-09-24T15:57:04.399Z,51.89
2022-09-24T16:01:06.509Z,52.89
2022-09-24T16:05:13.013Z,52.88
2022-09-24T16:09:15.023Z,53.00
2022-09-24T16:13:17.864Z,52.97
2022-09-24T16:17:19.861Z,52.61
2022-09-24T16:21:21.986Z,52.52
2022-09-24T16:25:24.072Z,52.92
2022-09-24T16:29:26.374Z,53.06
2022-09-24T16:33:28.370Z,53.38
2022-09-24T16:37:30.425Z,53.94
2022-09-24T16:41:34.429Z,54.44
2022-09-24T16:45:36.556Z,54.54
2022-09-24T16:49:38.551Z,54.66
2022-09-24T16:53:43.865Z,54.83
2022-09-24T16:57:48.374Z,55.63
2022-09-24T17:01:50.525Z,55.79
2022-09-24T17:05:52.565Z,56.06
2022-09-24T17:10:13.086Z,56.89
2022-09-24T17:14:16.968Z,57.20
2022-09-24T17:18:18.993Z,57.34
2022-09-24T17:22:21.029Z,58.29
2022-09-24T17:26:23.312Z,59.32
2022-09-24T17:30:26.780Z,60.21
2022-09-24T17:34:28.897Z,60.83
2022-09-24T17:38:32.718Z,61.11
2022-09-24T17:42:34.791Z,61.62
2022-09-24T17:46:36.818Z,61.88
2022-09-24T17:50:38.860Z,63.44
2022-09-24T17:54:40.934Z,64.05
2022-09-24T17:58:46.775Z,65.15
2022-09-24T18:02:48.850Z,68.21
2022-09-24T18:06:50.877Z,70.36
2022-09-24T18:11:03.623Z,73.13
2022-09-24T18:15:06.020Z,74.90
2022-09-24T18:19:10.840Z,78.49
2022-09-24T18:23:13.478Z,82.73
2022-09-24T18:27:16.015Z,85.00
2022-09-24T18:31:20.311Z,86.33
2022-09-24T18:35:22.309Z,87.08
2022-09-24T18:39:25.676Z,90.34
2022-09-24T18:43:28.570Z,91.70
2022-09-24T18:47:30.872Z,93.62
2022-09-24T18:51:35.413Z,96.16
2022-09-24T18:55:40.550Z,97.50
2022-09-24T18:59:46.708Z,100.00
2022-09-24T19:03:49.188Z,100.00
2022-09-24T19:07:51.168Z,100.00
2022-09-24T19:11:53.153Z,100.00
2022-09-24T19:15:55.255Z,100.00
2022-09-24T19:19:59.053Z,100.00
2022-09-24T19:24:01.319Z,100.00
2022-09-24T19:28:05.428Z,100.00
2022-09-24T19:32:07.673Z,100.00
2022-09-24T19:36:10.274Z,100.00
2022-09-24T19:40:12.491Z,100.00
2022-09-24T19:44:16.511Z,100.00
2022-09-24T19:48:19.623Z,100.00
2022-09-24T19:52:21.617Z,100.00
2022-09-24T19:56:25.403Z,100.00
2022-09-24T20:00:27.384Z,100.00
2022-09-24T20:04:29.590Z,100.00
2022-09-24T20:08:31.556Z,100.00
2022-09-24T20:12:34.204Z,100.00
2022-09-24T20:16:36.317Z,100.00
2022-09-24T20:20:41.990Z,100.00
2022-09-24T20:24:44.011Z,100.00
2022-09-24T20:28:46.464Z,100.00
2022-09-24T20:32:48.501Z,100.00
2022-09-24T20:36:50.854Z,100.00
2022-09-24T20:40:52.955Z,100.00
2022-09-24T20:44:56.023Z,100.00
2022-09-24T20:48:59.855Z,100.00
2022-09-24T20:53:01.944Z,100.00
2022-09-24T20:57:04.106Z,100.00
2022-09-24T21:01:07.319Z,100.00
2022-09-24T21:05:10.351Z,100.00
2022-09-24T21:09:13.731Z,100.00
2022-09-24T21:13:15.754Z,100.00
2022-09-24T21:17:18.514Z,100.00
2022-09-24T21:21:26.355Z,100.00
2022-09-24T21:25:52.882Z,100.00
2022-09-24T21:29:50.353Z,100.00
2022-09-24T21:33:53.325Z,100.00
2022-09-24T21:37:55.721Z,100.00
2022-09-24T21:41:59.259Z,100.00
2022-09-24T21:46:05.255Z,100.00
2022-09-24T21:50:09.678Z,100.00
2022-09-24T21:54:17.256Z,100.00
2022-09-24T21:58:19.547Z,100.00
2022-09-24T22:02:21.619Z,100.00
2022-09-24T22:06:27.027Z,100.00
2022-09-24T22:10:29.025Z,100.00
2022-09-24T22:14:34.497Z,100.00
2022-09-24T22:18:37.662Z,100.00
2022-09-24T22:22:39.637Z,100.00
2022-09-24T22:26:41.616Z,100.00
2022-09-24T22:30:44.572Z,100.00
2022-09-24T22:35:05.566Z,100.00
2022-09-24T22:39:07.934Z,100.00
2022-09-24T22:43:10.012Z,100.00
2022-09-24T22:47:12.071Z,100.00
2022-09-24T22:51:14.354Z,100.00
2022-09-24T22:55:16.414Z,100.00
2022-09-24T22:59:18.418Z,100.00
2022-09-24T23:03:20.515Z,100.00
2022-09-24T23:07:23.080Z,100.00
2022-09-24T23:11:30.575Z,100.00
2022-09-24T23:15:32.565Z,100.00
2022-09-24T23:19:49.837Z,100.00
2022-09-24T23:23:54.104Z,100.00
2022-09-24T23:27:56.089Z,100.00
2022-09-24T23:31:58.062Z,100.00
2022-09-24T23:36:00.486Z,100.00
2022-09-24T23:40:03.165Z,100.00
2022-09-24T23:44:05.269Z,100.00
2022-09-24T23:48:07.283Z,100.00
2022-09-24T23:52:09.288Z,100.00
2022-09-24T23:56:11.443Z,100.00
